sensor_id;sensor_type;location;lat;lon;timestamp;noise_LAeq;noise_LA_min;noise_LA_max;noise_LA01;noise_LA95
70454;Laerm;57915;47.174;14.680;2024-01-15T00:00:37;39.58;36.53;44.16;;
70454;Laerm;57915;47.174;14.680;2024-01-15T00:01:41;40.87;36.90;46.30;;
70454;Laerm;57915;47.174;14.680;2024-01-15T00:02:42;39.81;36.20;48.52;;
70454;Laerm;57915;47.174;14.680;2024-01-15T00:03:43;41.53;36.66;50.30;;
70454;Laerm;57915;47.174;14.680;2024-01-15T00:04:44;40.99;36.70;44.82;;
70454;Laerm;57915;47.174;14.680;2024-01-15T00:05:45;40.37;36.95;44.44;;
70454;Laerm;57915;47.174;14.680;2024-01-15T00:06:46;41.58;37.46;49.52;;
70454;Laerm;57915;47.174;14.680;2024-01-15T00:07:47;42.95;37.68;47.42;;
70454;Laerm;57915;47.174;14.680;2024-01-15T00:08:48;41.70;35.97;46.27;;
70454;Laerm;57915;47.174;14.680;2024-01-15T00:09:50;40.95;36.37;45.13;;
70454;Laerm;57915;47.174;14.680;2024-01-15T00:10:51;50.14;37.39;62.17;;
70454;Laerm;57915;47.174;14.680;2024-01-15T00:11:52;52.34;43.85;62.16;;
70454;Laerm;57915;47.174;14.680;2024-01-15T00:12:53;42.39;37.65;49.98;;
70454;Laerm;57915;47.174;14.680;2024-01-15T00:13:54;40.11;35.58;44.41;;
70454;Laerm;57915;47.174;14.680;2024-01-15T00:14:55;41.69;37.35;49.26;;
70454;Laerm;57915;47.174;14.680;2024-01-15T00:15:56;40.61;36.42;54.66;;
70454;Laerm;57915;47.174;14.680;2024-01-15T00:16:57;39.47;35.74;46.20;;
70454;Laerm;57915;47.174;14.680;2024-01-15T00:17:57;41.22;35.78;50.14;;
70454;Laerm;57915;47.174;14.680;2024-01-15T00:18:58;40.50;36.63;53.29;;
70454;Laerm;57915;47.174;14.680;2024-01-15T00:19:59;43.57;34.86;63.37;;
70454;Laerm;57915;47.174;14.680;2024-01-15T00:21:00;39.65;36.57;52.52;;
70454;Laerm;57915;47.174;14.680;2024-01-15T00:22:01;43.81;37.47;63.62;;
70454;Laerm;57915;47.174;14.680;2024-01-15T00:23:02;42.21;38.11;54.54;;
70454;Laerm;57915;47.174;14.680;2024-01-15T00:24:03;41.29;37.72;45.65;;
70454;Laerm;57915;47.174;14.680;2024-01-15T00:25:06;41.04;36.90;50.53;;
70454;Laerm;57915;47.174;14.680;2024-01-15T00:26:07;40.73;35.70;50.58;;
70454;Laerm;57915;47.174;14.680;2024-01-15T00:27:08;40.94;36.59;56.77;;
70454;Laerm;57915;47.174;14.680;2024-01-15T00:28:09;40.02;36.21;44.66;;
70454;Laerm;57915;47.174;14.680;2024-01-15T00:29:10;41.08;36.57;52.25;;
70454;Laerm;57915;47.174;14.680;2024-01-15T00:30:11;41.13;37.10;47.76;;
70454;Laerm;57915;47.174;14.680;2024-01-15T00:31:13;41.47;35.84;46.24;;
70454;Laerm;57915;47.174;14.680;2024-01-15T00:32:16;40.10;35.98;48.63;;
70454;Laerm;57915;47.174;14.680;2024-01-15T00:33:17;41.17;35.81;50.35;;
70454;Laerm;57915;47.174;14.680;2024-01-15T00:34:17;39.41;35.15;44.74;;
70454;Laerm;57915;47.174;14.680;2024-01-15T00:35:19;40.51;35.77;49.28;;
70454;Laerm;57915;47.174;14.680;2024-01-15T00:36:19;39.45;34.10;46.90;;
70454;Laerm;57915;47.174;14.680;2024-01-15T00:37:21;42.49;35.97;54.44;;
70454;Laerm;57915;47.174;14.680;2024-01-15T00:38:21;57.98;37.58;72.03;;
70454;Laerm;57915;47.174;14.680;2024-01-15T00:39:23;40.77;36.23;45.52;;
70454;Laerm;57915;47.174;14.680;2024-01-15T00:40:25;41.52;36.23;45.55;;
70454;Laerm;57915;47.174;14.680;2024-01-15T00:41:26;41.18;37.63;45.54;;
70454;Laerm;57915;47.174;14.680;2024-01-15T00:42:28;41.24;38.02;44.99;;
70454;Laerm;57915;47.174;14.680;2024-01-15T00:43:29;40.53;36.78;44.92;;
70454;Laerm;57915;47.174;14.680;2024-01-15T00:44:29;39.54;35.73;44.68;;
70454;Laerm;57915;47.174;14.680;2024-01-15T00:45:31;41.55;37.54;46.17;;
70454;Laerm;57915;47.174;14.680;2024-01-15T00:46:31;41.13;37.03;51.83;;
70454;Laerm;57915;47.174;14.680;2024-01-15T00:47:33;42.55;39.17;46.17;;
70454;Laerm;57915;47.174;14.680;2024-01-15T00:48:33;40.53;36.94;43.73;;
70454;Laerm;57915;47.174;14.680;2024-01-15T00:49:35;42.67;38.01;46.78;;
70454;Laerm;57915;47.174;14.680;2024-01-15T00:50:35;42.95;36.86;48.27;;
70454;Laerm;57915;47.174;14.680;2024-01-15T00:51:37;41.38;36.94;45.67;;
70454;Laerm;57915;47.174;14.680;2024-01-15T00:52:37;40.53;37.27;45.50;;
70454;Laerm;57915;47.174;14.680;2024-01-15T00:53:40;39.42;36.27;43.90;;
70454;Laerm;57915;47.174;14.680;2024-01-15T00:54:40;41.08;35.27;46.06;;
70454;Laerm;57915;47.174;14.680;2024-01-15T00:55:42;40.77;36.95;45.31;;
70454;Laerm;57915;47.174;14.680;2024-01-15T00:56:44;40.00;35.94;43.73;;
70454;Laerm;57915;47.174;14.680;2024-01-15T00:57:44;39.68;34.59;45.76;;
70454;Laerm;57915;47.174;14.680;2024-01-15T00:58:45;43.04;39.06;47.62;;
70454;Laerm;57915;47.174;14.680;2024-01-15T00:59:46;40.62;36.35;45.07;;
70454;Laerm;57915;47.174;14.680;2024-01-15T01:00:47;40.24;36.28;43.89;;
70454;Laerm;57915;47.174;14.680;2024-01-15T01:01:48;42.37;39.58;45.10;;
70454;Laerm;57915;47.174;14.680;2024-01-15T01:02:49;42.67;38.21;50.17;;
70454;Laerm;57915;47.174;14.680;2024-01-15T01:03:50;56.14;39.75;69.87;;
70454;Laerm;57915;47.174;14.680;2024-01-15T01:04:51;42.61;38.43;46.79;;
70454;Laerm;57915;47.174;14.680;2024-01-15T01:05:52;43.28;38.54;47.46;;
70454;Laerm;57915;47.174;14.680;2024-01-15T01:06:53;42.57;38.52;46.19;;
70454;Laerm;57915;47.174;14.680;2024-01-15T01:07:54;42.92;38.50;45.97;;
70454;Laerm;57915;47.174;14.680;2024-01-15T01:08:55;44.18;39.51;48.19;;
70454;Laerm;57915;47.174;14.680;2024-01-15T01:09:56;41.76;36.93;47.06;;
70454;Laerm;57915;47.174;14.680;2024-01-15T01:10:58;39.95;36.27;43.51;;
70454;Laerm;57915;47.174;14.680;2024-01-15T01:11:59;43.84;36.59;51.47;;
70454;Laerm;57915;47.174;14.680;2024-01-15T01:13:00;41.11;37.38;45.39;;
70454;Laerm;57915;47.174;14.680;2024-01-15T01:14:02;39.68;35.86;42.59;;
70454;Laerm;57915;47.174;14.680;2024-01-15T01:15:03;54.34;36.41;66.49;;
70454;Laerm;57915;47.174;14.680;2024-01-15T01:16:05;44.51;38.36;56.57;;
70454;Laerm;57915;47.174;14.680;2024-01-15T01:17:05;40.69;37.58;46.23;;
70454;Laerm;57915;47.174;14.680;2024-01-15T01:18:07;43.94;38.72;50.00;;
70454;Laerm;57915;47.174;14.680;2024-01-15T01:19:07;47.42;43.56;50.98;;
70454;Laerm;57915;47.174;14.680;2024-01-15T01:20:09;42.26;37.28;48.16;;
70454;Laerm;57915;47.174;14.680;2024-01-15T01:21:10;41.73;37.98;44.84;;
70454;Laerm;57915;47.174;14.680;2024-01-15T01:22:11;40.49;37.08;43.67;;
70454;Laerm;57915;47.174;14.680;2024-01-15T01:23:12;41.93;37.33;46.04;;
70454;Laerm;57915;47.174;14.680;2024-01-15T01:24:13;41.17;37.53;46.93;;
70454;Laerm;57915;47.174;14.680;2024-01-15T01:25:14;38.63;35.55;41.62;;
70454;Laerm;57915;47.174;14.680;2024-01-15T01:26:16;39.17;35.78;42.13;;
70454;Laerm;57915;47.174;14.680;2024-01-15T01:27:18;39.65;35.70;43.70;;
70454;Laerm;57915;47.174;14.680;2024-01-15T01:28:18;42.03;37.15;44.89;;
70454;Laerm;57915;47.174;14.680;2024-01-15T01:29:20;39.53;36.88;42.32;;
70454;Laerm;57915;47.174;14.680;2024-01-15T01:30:20;40.16;36.85;42.82;;
70454;Laerm;57915;47.174;14.680;2024-01-15T01:31:22;40.81;37.22;44.79;;
70454;Laerm;57915;47.174;14.680;2024-01-15T01:32:23;40.83;36.74;45.31;;
70454;Laerm;57915;47.174;14.680;2024-01-15T01:33:24;40.46;37.23;44.08;;
70454;Laerm;57915;47.174;14.680;2024-01-15T01:34:25;43.98;40.11;49.64;;
70454;Laerm;57915;47.174;14.680;2024-01-15T01:35:26;45.29;40.56;51.38;;
70454;Laerm;57915;47.174;14.680;2024-01-15T01:36:27;55.33;38.32;67.68;;
70454;Laerm;57915;47.174;14.680;2024-01-15T01:37:28;43.94;38.15;48.85;;
70454;Laerm;57915;47.174;14.680;2024-01-15T01:38:29;43.30;39.35;46.71;;
70454;Laerm;57915;47.174;14.680;2024-01-15T01:39:29;41.81;37.33;45.73;;
70454;Laerm;57915;47.174;14.680;2024-01-15T01:40:31;42.80;38.15;46.63;;
70454;Laerm;57915;47.174;14.680;2024-01-15T01:41:33;41.88;38.70;46.28;;
70454;Laerm;57915;47.174;14.680;2024-01-15T01:42:34;42.56;37.78;47.08;;
70454;Laerm;57915;47.174;14.680;2024-01-15T01:43:35;41.49;38.04;45.10;;
70454;Laerm;57915;47.174;14.680;2024-01-15T01:44:36;56.38;37.74;69.88;;
70454;Laerm;57915;47.174;14.680;2024-01-15T01:45:37;47.20;38.27;62.09;;
70454;Laerm;57915;47.174;14.680;2024-01-15T01:46:37;42.89;37.89;51.38;;
70454;Laerm;57915;47.174;14.680;2024-01-15T01:47:40;40.14;35.52;44.74;;
70454;Laerm;57915;47.174;14.680;2024-01-15T01:48:41;40.44;36.47;43.97;;
70454;Laerm;57915;47.174;14.680;2024-01-15T01:49:43;41.02;37.17;45.09;;
70454;Laerm;57915;47.174;14.680;2024-01-15T01:50:44;41.19;37.44;45.06;;
70454;Laerm;57915;47.174;14.680;2024-01-15T01:51:45;42.24;38.23;46.93;;
70454;Laerm;57915;47.174;14.680;2024-01-15T01:52:46;42.02;36.93;45.96;;
70454;Laerm;57915;47.174;14.680;2024-01-15T01:53:48;41.61;38.13;47.78;;
70454;Laerm;57915;47.174;14.680;2024-01-15T01:54:49;41.11;37.93;43.91;;
70454;Laerm;57915;47.174;14.680;2024-01-15T01:55:50;40.43;37.28;48.22;;
70454;Laerm;57915;47.174;14.680;2024-01-15T01:56:52;40.54;35.94;43.70;;
70454;Laerm;57915;47.174;14.680;2024-01-15T01:57:54;43.03;38.67;50.49;;
70454;Laerm;57915;47.174;14.680;2024-01-15T01:58:55;42.18;39.00;47.35;;
70454;Laerm;57915;47.174;14.680;2024-01-15T01:59:57;40.44;36.77;43.90;;
70454;Laerm;57915;47.174;14.680;2024-01-15T02:00:58;40.11;36.37;44.50;;
70454;Laerm;57915;47.174;14.680;2024-01-15T02:02:00;40.15;35.90;44.02;;
70454;Laerm;57915;47.174;14.680;2024-01-15T02:03:02;40.32;37.28;44.13;;
70454;Laerm;57915;47.174;14.680;2024-01-15T02:04:04;45.42;38.65;52.40;;
70454;Laerm;57915;47.174;14.680;2024-01-15T02:05:05;45.66;36.75;53.92;;
70454;Laerm;57915;47.174;14.680;2024-01-15T02:06:07;40.48;36.47;45.54;;
70454;Laerm;57915;47.174;14.680;2024-01-15T02:07:08;39.73;35.73;49.78;;
70454;Laerm;57915;47.174;14.680;2024-01-15T02:08:10;39.62;36.25;42.69;;
70454;Laerm;57915;47.174;14.680;2024-01-15T02:09:10;39.75;36.35;44.52;;
70454;Laerm;57915;47.174;14.680;2024-01-15T02:10:15;39.50;36.93;42.78;;
70454;Laerm;57915;47.174;14.680;2024-01-15T02:11:15;40.23;36.45;44.99;;
70454;Laerm;57915;47.174;14.680;2024-01-15T02:12:18;41.97;37.45;46.65;;
70454;Laerm;57915;47.174;14.680;2024-01-15T02:13:19;40.40;36.04;51.19;;
70454;Laerm;57915;47.174;14.680;2024-01-15T02:14:21;38.74;35.76;43.17;;
70454;Laerm;57915;47.174;14.680;2024-01-15T02:15:23;41.00;36.20;45.65;;
70454;Laerm;57915;47.174;14.680;2024-01-15T02:16:24;40.15;36.83;44.65;;
70454;Laerm;57915;47.174;14.680;2024-01-15T02:17:24;39.13;35.73;46.48;;
70454;Laerm;57915;47.174;14.680;2024-01-15T02:18:26;40.41;36.26;45.72;;
70454;Laerm;57915;47.174;14.680;2024-01-15T02:19:27;41.40;36.89;46.83;;
70454;Laerm;57915;47.174;14.680;2024-01-15T02:20:28;40.55;36.35;45.17;;
70454;Laerm;57915;47.174;14.680;2024-01-15T02:21:28;42.12;37.46;47.23;;
70454;Laerm;57915;47.174;14.680;2024-01-15T02:22:31;39.93;36.24;48.53;;
70454;Laerm;57915;47.174;14.680;2024-01-15T02:23:33;40.23;36.21;49.42;;
70454;Laerm;57915;47.174;14.680;2024-01-15T02:24:34;40.90;36.24;52.59;;
70454;Laerm;57915;47.174;14.680;2024-01-15T02:25:35;39.96;36.40;43.73;;
70454;Laerm;57915;47.174;14.680;2024-01-15T02:26:35;42.23;35.55;47.75;;
70454;Laerm;57915;47.174;14.680;2024-01-15T02:27:38;42.26;38.59;46.30;;
70454;Laerm;57915;47.174;14.680;2024-01-15T02:28:38;41.11;37.88;44.98;;
70454;Laerm;57915;47.174;14.680;2024-01-15T02:29:41;41.43;37.04;45.90;;
70454;Laerm;57915;47.174;14.680;2024-01-15T02:30:42;41.49;36.73;45.68;;
70454;Laerm;57915;47.174;14.680;2024-01-15T02:31:44;39.64;36.92;48.72;;
70454;Laerm;57915;47.174;14.680;2024-01-15T02:32:44;40.54;35.89;46.00;;
70454;Laerm;57915;47.174;14.680;2024-01-15T02:33:46;54.97;36.32;67.09;;
70454;Laerm;57915;47.174;14.680;2024-01-15T02:34:47;40.67;37.50;47.52;;
70454;Laerm;57915;47.174;14.680;2024-01-15T02:35:48;40.67;36.05;44.56;;
70454;Laerm;57915;47.174;14.680;2024-01-15T02:36:50;38.41;35.86;42.02;;
70454;Laerm;57915;47.174;14.680;2024-01-15T02:37:51;40.07;35.78;43.48;;
70454;Laerm;57915;47.174;14.680;2024-01-15T02:38:53;39.53;36.34;42.73;;
70454;Laerm;57915;47.174;14.680;2024-01-15T02:39:54;39.58;35.89;42.97;;
70454;Laerm;57915;47.174;14.680;2024-01-15T02:40:55;39.86;36.29;43.27;;
70454;Laerm;57915;47.174;14.680;2024-01-15T02:41:55;39.86;36.98;43.56;;
70454;Laerm;57915;47.174;14.680;2024-01-15T02:42:57;54.70;36.51;68.05;;
70454;Laerm;57915;47.174;14.680;2024-01-15T02:43:58;45.05;35.89;59.89;;
70454;Laerm;57915;47.174;14.680;2024-01-15T02:44:59;40.16;36.36;45.65;;
70454;Laerm;57915;47.174;14.680;2024-01-15T02:46:00;42.01;38.19;52.85;;
70454;Laerm;57915;47.174;14.680;2024-01-15T02:47:01;42.88;38.80;49.11;;
70454;Laerm;57915;47.174;14.680;2024-01-15T02:48:02;41.21;37.29;47.13;;
70454;Laerm;57915;47.174;14.680;2024-01-15T02:49:03;42.35;37.65;46.57;;
70454;Laerm;57915;47.174;14.680;2024-01-15T02:50:04;41.53;37.58;46.17;;
70454;Laerm;57915;47.174;14.680;2024-01-15T02:51:05;41.29;37.33;46.94;;
70454;Laerm;57915;47.174;14.680;2024-01-15T02:52:07;46.16;36.32;59.72;;
70454;Laerm;57915;47.174;14.680;2024-01-15T02:53:07;55.85;36.05;70.08;;
70454;Laerm;57915;47.174;14.680;2024-01-15T02:54:10;41.91;37.95;46.28;;
70454;Laerm;57915;47.174;14.680;2024-01-15T02:55:10;41.63;38.23;46.86;;
70454;Laerm;57915;47.174;14.680;2024-01-15T02:56:12;44.33;39.21;49.38;;
70454;Laerm;57915;47.174;14.680;2024-01-15T02:57:12;47.03;40.20;52.43;;
70454;Laerm;57915;47.174;14.680;2024-01-15T02:58:14;51.05;44.93;56.71;;
70454;Laerm;57915;47.174;14.680;2024-01-15T02:59:14;43.04;37.70;49.07;;
70454;Laerm;57915;47.174;14.680;2024-01-15T03:00:16;41.04;37.21;49.64;;
70454;Laerm;57915;47.174;14.680;2024-01-15T03:01:18;39.70;35.91;43.68;;
70454;Laerm;57915;47.174;14.680;2024-01-15T03:02:18;41.28;38.15;50.43;;
70454;Laerm;57915;47.174;14.680;2024-01-15T03:03:20;40.58;37.45;54.89;;
70454;Laerm;57915;47.174;14.680;2024-01-15T03:04:20;40.37;36.32;48.97;;
70454;Laerm;57915;47.174;14.680;2024-01-15T03:05:21;41.68;38.44;46.76;;
70454;Laerm;57915;47.174;14.680;2024-01-15T03:06:22;41.22;37.66;44.76;;
70454;Laerm;57915;47.174;14.680;2024-01-15T03:07:23;41.30;37.84;51.88;;
70454;Laerm;57915;47.174;14.680;2024-01-15T03:08:24;55.00;37.36;67.59;;
70454;Laerm;57915;47.174;14.680;2024-01-15T03:09:26;42.60;38.09;47.65;;
70454;Laerm;57915;47.174;14.680;2024-01-15T03:10:27;54.53;38.14;66.70;;
70454;Laerm;57915;47.174;14.680;2024-01-15T03:11:28;40.80;38.14;43.98;;
70454;Laerm;57915;47.174;14.680;2024-01-15T03:12:29;59.14;39.00;68.39;;
70454;Laerm;57915;47.174;14.680;2024-01-15T03:13:30;56.84;38.97;71.25;;
70454;Laerm;57915;47.174;14.680;2024-01-15T03:14:31;56.24;40.13;69.42;;
70454;Laerm;57915;47.174;14.680;2024-01-15T03:15:32;41.62;37.88;45.21;;
70454;Laerm;57915;47.174;14.680;2024-01-15T03:16:33;42.77;38.66;50.65;;
70454;Laerm;57915;47.174;14.680;2024-01-15T03:17:34;41.94;37.69;48.00;;
70454;Laerm;57915;47.174;14.680;2024-01-15T03:18:34;56.12;38.27;68.90;;
70454;Laerm;57915;47.174;14.680;2024-01-15T03:19:35;55.65;37.95;68.16;;
70454;Laerm;57915;47.174;14.680;2024-01-15T03:20:36;56.79;38.45;69.55;;
70454;Laerm;57915;47.174;14.680;2024-01-15T03:21:37;41.01;37.25;46.96;;
70454;Laerm;57915;47.174;14.680;2024-01-15T03:22:38;40.47;37.00;47.04;;
70454;Laerm;57915;47.174;14.680;2024-01-15T03:23:39;40.85;37.87;44.58;;
70454;Laerm;57915;47.174;14.680;2024-01-15T03:24:41;43.25;36.88;51.37;;
70454;Laerm;57915;47.174;14.680;2024-01-15T03:25:43;41.53;37.28;47.02;;
70454;Laerm;57915;47.174;14.680;2024-01-15T03:26:43;42.99;38.66;47.08;;
70454;Laerm;57915;47.174;14.680;2024-01-15T03:27:44;42.49;38.67;47.78;;
70454;Laerm;57915;47.174;14.680;2024-01-15T03:28:45;41.03;37.55;45.66;;
70454;Laerm;57915;47.174;14.680;2024-01-15T03:29:45;57.45;38.12;71.77;;
70454;Laerm;57915;47.174;14.680;2024-01-15T03:30:47;43.90;39.78;46.99;;
70454;Laerm;57915;47.174;14.680;2024-01-15T03:31:47;56.91;38.54;70.20;;
70454;Laerm;57915;47.174;14.680;2024-01-15T03:32:49;52.89;40.07;62.95;;
70454;Laerm;57915;47.174;14.680;2024-01-15T03:33:50;56.64;39.93;67.76;;
70454;Laerm;57915;47.174;14.680;2024-01-15T03:34:51;55.75;39.66;68.81;;
70454;Laerm;57915;47.174;14.680;2024-01-15T03:35:52;42.29;38.78;46.63;;
70454;Laerm;57915;47.174;14.680;2024-01-15T03:36:53;53.66;39.38;66.12;;
70454;Laerm;57915;47.174;14.680;2024-01-15T03:37:54;61.23;40.68;73.42;;
70454;Laerm;57915;47.174;14.680;2024-01-15T03:38:56;44.02;40.23;46.76;;
70454;Laerm;57915;47.174;14.680;2024-01-15T03:39:57;41.62;37.18;50.11;;
70454;Laerm;57915;47.174;14.680;2024-01-15T03:40:59;58.26;38.61;68.44;;
70454;Laerm;57915;47.174;14.680;2024-01-15T03:41:59;45.60;38.42;58.14;;
70454;Laerm;57915;47.174;14.680;2024-01-15T03:43:01;60.29;38.13;71.40;;
70454;Laerm;57915;47.174;14.680;2024-01-15T03:44:01;60.53;39.24;71.68;;
70454;Laerm;57915;47.174;14.680;2024-01-15T03:45:02;41.64;36.69;49.01;;
70454;Laerm;57915;47.174;14.680;2024-01-15T03:46:03;39.89;36.84;43.56;;
70454;Laerm;57915;47.174;14.680;2024-01-15T03:47:04;41.54;37.22;45.22;;
70454;Laerm;57915;47.174;14.680;2024-01-15T03:48:06;42.35;38.90;45.95;;
70454;Laerm;57915;47.174;14.680;2024-01-15T03:49:06;55.87;38.87;69.26;;
70454;Laerm;57915;47.174;14.680;2024-01-15T03:50:08;57.83;38.90;69.76;;
70454;Laerm;57915;47.174;14.680;2024-01-15T03:51:09;42.11;38.59;48.24;;
70454;Laerm;57915;47.174;14.680;2024-01-15T03:52:10;57.15;39.57;71.03;;
70454;Laerm;57915;47.174;14.680;2024-01-15T03:53:11;53.51;38.01;65.51;;
70454;Laerm;57915;47.174;14.680;2024-01-15T03:54:11;42.67;37.54;48.07;;
70454;Laerm;57915;47.174;14.680;2024-01-15T03:55:14;56.31;40.60;69.90;;
70454;Laerm;57915;47.174;14.680;2024-01-15T03:56:15;60.35;41.52;70.06;;
70454;Laerm;57915;47.174;14.680;2024-01-15T03:57:17;42.53;38.05;46.96;;
70454;Laerm;57915;47.174;14.680;2024-01-15T03:58:17;53.44;37.82;66.64;;
70454;Laerm;57915;47.174;14.680;2024-01-15T03:59:18;42.62;39.04;46.72;;
70454;Laerm;57915;47.174;14.680;2024-01-15T04:00:19;58.83;40.23;71.67;;
70454;Laerm;57915;47.174;14.680;2024-01-15T04:01:20;45.03;39.39;53.67;;
70454;Laerm;57915;47.174;14.680;2024-01-15T04:02:21;56.77;37.60;69.12;;
70454;Laerm;57915;47.174;14.680;2024-01-15T04:03:21;54.91;39.11;66.36;;
70454;Laerm;57915;47.174;14.680;2024-01-15T04:04:23;51.99;38.15;63.64;;
70454;Laerm;57915;47.174;14.680;2024-01-15T04:05:23;43.67;39.16;48.06;;
70454;Laerm;57915;47.174;14.680;2024-01-15T04:06:25;60.72;39.31;72.62;;
70454;Laerm;57915;47.174;14.680;2024-01-15T04:07:25;61.15;41.05;74.05;;
70454;Laerm;57915;47.174;14.680;2024-01-15T04:08:27;54.88;39.77;67.81;;
70454;Laerm;57915;47.174;14.680;2024-01-15T04:09:27;42.06;37.39;47.67;;
70454;Laerm;57915;47.174;14.680;2024-01-15T04:10:29;42.88;36.54;55.19;;
70454;Laerm;57915;47.174;14.680;2024-01-15T04:11:31;54.30;41.04;64.61;;
70454;Laerm;57915;47.174;14.680;2024-01-15T04:12:31;56.33;40.45;67.83;;
70454;Laerm;57915;47.174;14.680;2024-01-15T04:13:33;60.85;43.83;70.05;;
70454;Laerm;57915;47.174;14.680;2024-01-15T04:14:33;61.05;41.24;71.58;;
70454;Laerm;57915;47.174;14.680;2024-01-15T04:15:35;42.96;39.02;46.51;;
70454;Laerm;57915;47.174;14.680;2024-01-15T04:16:37;60.95;41.21;73.08;;
70454;Laerm;57915;47.174;14.680;2024-01-15T04:17:38;52.00;43.72;65.31;;
70454;Laerm;57915;47.174;14.680;2024-01-15T04:18:39;58.63;43.59;67.69;;
70454;Laerm;57915;47.174;14.680;2024-01-15T04:19:39;60.25;41.40;72.48;;
70454;Laerm;57915;47.174;14.680;2024-01-15T04:20:44;49.68;39.72;62.63;;
70454;Laerm;57915;47.174;14.680;2024-01-15T04:21:45;56.93;41.34;69.08;;
70454;Laerm;57915;47.174;14.680;2024-01-15T04:22:46;63.44;44.03;75.02;;
70454;Laerm;57915;47.174;14.680;2024-01-15T04:23:47;58.96;44.36;69.75;;
70454;Laerm;57915;47.174;14.680;2024-01-15T04:24:48;47.26;42.70;55.40;;
70454;Laerm;57915;47.174;14.680;2024-01-15T04:25:50;53.50;42.96;66.10;;
70454;Laerm;57915;47.174;14.680;2024-01-15T04:26:51;57.82;44.75;68.44;;
70454;Laerm;57915;47.174;14.680;2024-01-15T04:27:52;60.49;44.88;73.19;;
70454;Laerm;57915;47.174;14.680;2024-01-15T04:28:52;61.78;42.60;74.24;;
70454;Laerm;57915;47.174;14.680;2024-01-15T04:29:54;53.52;39.15;65.93;;
70454;Laerm;57915;47.174;14.680;2024-01-15T04:30:54;58.19;40.05;69.32;;
70454;Laerm;57915;47.174;14.680;2024-01-15T04:31:56;60.42;44.44;69.75;;
70454;Laerm;57915;47.174;14.680;2024-01-15T04:32:56;58.28;44.03;68.06;;
70454;Laerm;57915;47.174;14.680;2024-01-15T04:33:58;63.29;44.31;71.38;;
70454;Laerm;57915;47.174;14.680;2024-01-15T04:34:58;62.90;49.02;72.34;;
70454;Laerm;57915;47.174;14.680;2024-01-15T04:36:01;60.25;45.28;68.94;;
70454;Laerm;57915;47.174;14.680;2024-01-15T04:37:01;56.15;44.21;66.50;;
70454;Laerm;57915;47.174;14.680;2024-01-15T04:38:03;59.83;43.70;69.35;;
70454;Laerm;57915;47.174;14.680;2024-01-15T04:39:04;61.21;45.19;72.37;;
70454;Laerm;57915;47.174;14.680;2024-01-15T04:40:06;60.77;44.07;73.44;;
70454;Laerm;57915;47.174;14.680;2024-01-15T04:41:10;59.39;44.35;69.25;;
70454;Laerm;57915;47.174;14.680;2024-01-15T04:42:12;62.00;43.36;71.54;;
70454;Laerm;57915;47.174;14.680;2024-01-15T04:43:12;59.93;44.25;68.86;;
70454;Laerm;57915;47.174;14.680;2024-01-15T04:44:14;54.80;43.48;69.52;;
70454;Laerm;57915;47.174;14.680;2024-01-15T04:45:14;53.91;44.18;66.99;;
70454;Laerm;57915;47.174;14.680;2024-01-15T04:46:15;57.48;46.63;67.66;;
70454;Laerm;57915;47.174;14.680;2024-01-15T04:47:16;60.33;45.36;70.60;;
70454;Laerm;57915;47.174;14.680;2024-01-15T04:48:16;56.67;42.48;69.43;;
70454;Laerm;57915;47.174;14.680;2024-01-15T04:49:18;57.74;41.64;72.11;;
70454;Laerm;57915;47.174;14.680;2024-01-15T04:50:18;52.61;41.62;64.91;;
70454;Laerm;57915;47.174;14.680;2024-01-15T04:51:20;56.01;42.56;67.79;;
70454;Laerm;57915;47.174;14.680;2024-01-15T04:52:20;57.99;42.11;69.76;;
70454;Laerm;57915;47.174;14.680;2024-01-15T04:53:22;62.21;43.50;75.15;;
70454;Laerm;57915;47.174;14.680;2024-01-15T04:54:22;57.48;43.69;68.66;;
70454;Laerm;57915;47.174;14.680;2024-01-15T04:55:24;58.26;43.85;70.06;;
70454;Laerm;57915;47.174;14.680;2024-01-15T04:56:25;60.09;43.31;69.96;;
70454;Laerm;57915;47.174;14.680;2024-01-15T04:57:27;60.47;43.16;71.21;;
70454;Laerm;57915;47.174;14.680;2024-01-15T04:58:27;59.33;41.53;69.03;;
70454;Laerm;57915;47.174;14.680;2024-01-15T04:59:29;44.44;41.29;48.92;;
70454;Laerm;57915;47.174;14.680;2024-01-15T05:00:29;56.31;43.70;65.99;;
70454;Laerm;57915;47.174;14.680;2024-01-15T05:01:31;59.51;42.45;70.57;;
70454;Laerm;57915;47.174;14.680;2024-01-15T05:02:32;42.53;38.68;49.33;;
70454;Laerm;57915;47.174;14.680;2024-01-15T05:03:33;54.92;39.36;67.99;;
70454;Laerm;57915;47.174;14.680;2024-01-15T05:04:34;58.31;40.73;70.47;;
70454;Laerm;57915;47.174;14.680;2024-01-15T05:05:35;43.06;38.87;50.86;;
70454;Laerm;57915;47.174;14.680;2024-01-15T05:06:36;59.21;39.46;71.47;;
70454;Laerm;57915;47.174;14.680;2024-01-15T05:07:37;43.69;38.29;49.32;;
70454;Laerm;57915;47.174;14.680;2024-01-15T05:08:38;56.68;37.52;68.70;;
70454;Laerm;57915;47.174;14.680;2024-01-15T05:09:39;61.18;42.70;71.51;;
70454;Laerm;57915;47.174;14.680;2024-01-15T05:10:40;43.53;38.90;48.38;;
70454;Laerm;57915;47.174;14.680;2024-01-15T05:11:43;55.48;40.49;67.81;;
70454;Laerm;57915;47.174;14.680;2024-01-15T05:12:43;56.00;41.51;66.89;;
70454;Laerm;57915;47.174;14.680;2024-01-15T05:13:45;59.94;40.93;70.13;;
70454;Laerm;57915;47.174;14.680;2024-01-15T05:14:45;62.22;42.06;71.84;;
70454;Laerm;57915;47.174;14.680;2024-01-15T05:15:47;62.26;42.17;73.65;;
70454;Laerm;57915;47.174;14.680;2024-01-15T05:16:47;57.45;43.69;69.16;;
70454;Laerm;57915;47.174;14.680;2024-01-15T05:17:49;61.22;42.19;71.45;;
70454;Laerm;57915;47.174;14.680;2024-01-15T05:18:50;56.52;40.11;65.95;;
70454;Laerm;57915;47.174;14.680;2024-01-15T05:19:51;50.67;37.84;62.11;;
70454;Laerm;57915;47.174;14.680;2024-01-15T05:20:52;58.40;39.03;70.46;;
70454;Laerm;57915;47.174;14.680;2024-01-15T05:21:52;62.85;39.97;73.65;;
70454;Laerm;57915;47.174;14.680;2024-01-15T05:22:54;49.31;38.64;62.39;;
70454;Laerm;57915;47.174;14.680;2024-01-15T05:23:54;57.91;41.03;71.43;;
70454;Laerm;57915;47.174;14.680;2024-01-15T05:24:56;58.43;39.06;71.03;;
70454;Laerm;57915;47.174;14.680;2024-01-15T05:25:56;56.52;39.14;68.75;;
70454;Laerm;57915;47.174;14.680;2024-01-15T05:26:58;64.24;46.72;74.30;;
70454;Laerm;57915;47.174;14.680;2024-01-15T05:28:00;47.40;42.18;56.62;;
70454;Laerm;57915;47.174;14.680;2024-01-15T05:29:00;59.37;39.61;72.50;;
70454;Laerm;57915;47.174;14.680;2024-01-15T05:30:02;59.95;43.26;70.50;;
70454;Laerm;57915;47.174;14.680;2024-01-15T05:31:03;56.13;43.41;68.31;;
70454;Laerm;57915;47.174;14.680;2024-01-15T05:32:05;61.87;47.83;70.01;;
70454;Laerm;57915;47.174;14.680;2024-01-15T05:33:05;58.94;44.98;67.16;;
70454;Laerm;57915;47.174;14.680;2024-01-15T05:34:07;60.87;45.56;70.56;;
70454;Laerm;57915;47.174;14.680;2024-01-15T05:35:08;61.64;43.67;71.69;;
70454;Laerm;57915;47.174;14.680;2024-01-15T05:36:09;64.97;44.02;74.95;;
70454;Laerm;57915;47.174;14.680;2024-01-15T05:37:10;47.50;42.56;52.83;;